Hauptseite
METAR-TAF:

METAR-TAF

Flughäfen :

Gafsa, Tunesien

Breite: 34-25N, Länge: 008-49E, Höhe: 313 m

Beobachtung

Neuester Wetterbericht von vor 1 Stunde und 6 Minuten, um 10:00 UTC
Wind 3 kt aus Nord/Nordost, variierte zwischen West/Nordwest und Ost
Temperatur 27°C
Luftfeuchtigkeit 51%
Luftdruck 1021 hPa
Sichtweite 10 km oder mehr
Aufgelockert bewölkt in der Höhe von 2600 ft

METAR: DTTF 231000Z 02003KT 290V100 9999 SCT026 27/16 Q1021 NOSIG

Zeit: 12:06 (11:06 UTC)

Prognose

Neuester Wetterbericht von vor 2 Stunden und 6 Minuten, um 09:00 UTC
Gültige Prognose vom 23 um 10 UTC bis 23 um 19 UTC
Wind 8 kt aus Nord
Sichtweite 10 km oder mehr
Aufgelockert bewölkt in der Höhe von 2600 ft

TAF: DTTF 230900Z 2310/2319 01008KT 9999 SCT026

Wetterbeobachtungen und Prognosen von mehr als 4000 Flughäfen (METAR und TAF Bericht).

Die verfügbaren Stationen werden durch gelbe und rote Markierungen auf der Karte dargestellt.

Führen Sie die Maus auf sie, um den Namen der Station zu sehen.

Darauf klicken, um die Beobachtung von Wetterbeobachtungen und Prognosen zu sehen.

Um die Karte zu ändern : klicken Sie auf den grünen Tasten mit einem schwarzen Kreuz Zum Vergrößern, auf den grünen Button mit einem Gedankenstrich zu verkleinern, oder auf die grünen Pfeile für benachbarte Karten.


METAR-TAF: